sensor_id;sensor_type;location;lat;lon;timestamp;P1;durP1;ratioP1;P2;durP2;ratioP2
5787;SDS011;2920;48.158;12.254;2023-04-23T00:00:11;4.10;;;3.20;;
5787;SDS011;2920;48.158;12.254;2023-04-23T00:02:37;4.38;;;2.83;;
5787;SDS011;2920;48.158;12.254;2023-04-23T00:05:04;5.13;;;3.00;;
5787;SDS011;2920;48.158;12.254;2023-04-23T00:07:33;3.63;;;2.85;;
5787;SDS011;2920;48.158;12.254;2023-04-23T00:09:59;4.07;;;2.45;;
5787;SDS011;2920;48.158;12.254;2023-04-23T00:12:25;3.38;;;2.42;;
5787;SDS011;2920;48.158;12.254;2023-04-23T00:14:51;3.38;;;2.30;;
5787;SDS011;2920;48.158;12.254;2023-04-23T00:17:17;4.70;;;3.03;;
5787;SDS011;2920;48.158;12.254;2023-04-23T00:19:43;3.97;;;2.58;;
5787;SDS011;2920;48.158;12.254;2023-04-23T00:22:08;4.20;;;2.30;;
5787;SDS011;2920;48.158;12.254;2023-04-23T00:24:34;2.88;;;2.58;;
5787;SDS011;2920;48.158;12.254;2023-04-23T00:27:02;4.45;;;2.60;;
5787;SDS011;2920;48.158;12.254;2023-04-23T00:29:28;4.35;;;3.17;;
5787;SDS011;2920;48.158;12.254;2023-04-23T00:31:53;4.57;;;2.95;;
5787;SDS011;2920;48.158;12.254;2023-04-23T00:34:19;4.53;;;2.72;;
5787;SDS011;2920;48.158;12.254;2023-04-23T00:36:44;3.83;;;2.78;;
5787;SDS011;2920;48.158;12.254;2023-04-23T00:39:10;5.82;;;3.70;;
5787;SDS011;2920;48.158;12.254;2023-04-23T00:41:35;3.38;;;2.78;;
5787;SDS011;2920;48.158;12.254;2023-04-23T00:44:01;5.30;;;2.35;;
5787;SDS011;2920;48.158;12.254;2023-04-23T00:46:27;3.83;;;2.85;;
5787;SDS011;2920;48.158;12.254;2023-04-23T00:48:52;2.88;;;2.40;;
5787;SDS011;2920;48.158;12.254;2023-04-23T00:51:19;3.25;;;2.35;;
5787;SDS011;2920;48.158;12.254;2023-04-23T00:53:45;2.55;;;2.30;;
5787;SDS011;2920;48.158;12.254;2023-04-23T00:56:11;5.25;;;2.60;;
5787;SDS011;2920;48.158;12.254;2023-04-23T00:58:36;3.55;;;2.25;;
5787;SDS011;2920;48.158;12.254;2023-04-23T01:01:02;6.35;;;3.30;;
5787;SDS011;2920;48.158;12.254;2023-04-23T01:03:28;3.95;;;2.67;;
5787;SDS011;2920;48.158;12.254;2023-04-23T01:05:55;5.03;;;2.80;;
5787;SDS011;2920;48.158;12.254;2023-04-23T01:08:20;2.92;;;2.50;;
5787;SDS011;2920;48.158;12.254;2023-04-23T01:10:47;3.35;;;2.55;;
5787;SDS011;2920;48.158;12.254;2023-04-23T01:13:13;4.45;;;3.45;;
5787;SDS011;2920;48.158;12.254;2023-04-23T01:15:38;5.30;;;3.42;;
5787;SDS011;2920;48.158;12.254;2023-04-23T01:18:04;4.53;;;3.03;;
5787;SDS011;2920;48.158;12.254;2023-04-23T01:20:31;6.18;;;3.35;;
5787;SDS011;2920;48.158;12.254;2023-04-23T01:22:57;3.80;;;2.95;;
5787;SDS011;2920;48.158;12.254;2023-04-23T01:25:23;6.07;;;3.10;;
5787;SDS011;2920;48.158;12.254;2023-04-23T01:27:48;5.40;;;3.15;;
5787;SDS011;2920;48.158;12.254;2023-04-23T01:30:14;6.28;;;3.42;;
5787;SDS011;2920;48.158;12.254;2023-04-23T01:32:39;3.17;;;2.50;;
5787;SDS011;2920;48.158;12.254;2023-04-23T01:35:05;4.03;;;2.70;;
5787;SDS011;2920;48.158;12.254;2023-04-23T01:37:32;4.97;;;3.03;;
5787;SDS011;2920;48.158;12.254;2023-04-23T01:39:57;2.67;;;2.38;;
5787;SDS011;2920;48.158;12.254;2023-04-23T01:42:23;3.05;;;2.55;;
5787;SDS011;2920;48.158;12.254;2023-04-23T01:44:48;2.47;;;2.03;;
5787;SDS011;2920;48.158;12.254;2023-04-23T01:47:15;3.17;;;2.42;;
5787;SDS011;2920;48.158;12.254;2023-04-23T01:49:41;3.63;;;2.30;;
5787;SDS011;2920;48.158;12.254;2023-04-23T01:52:06;4.13;;;3.13;;
5787;SDS011;2920;48.158;12.254;2023-04-23T01:54:32;3.35;;;2.60;;
5787;SDS011;2920;48.158;12.254;2023-04-23T01:56:57;5.03;;;2.85;;
5787;SDS011;2920;48.158;12.254;2023-04-23T01:59:23;5.35;;;3.10;;
5787;SDS011;2920;48.158;12.254;2023-04-23T02:01:48;5.28;;;3.40;;
5787;SDS011;2920;48.158;12.254;2023-04-23T02:04:14;4.18;;;2.70;;
5787;SDS011;2920;48.158;12.254;2023-04-23T02:06:41;5.93;;;3.10;;
5787;SDS011;2920;48.158;12.254;2023-04-23T02:09:07;3.83;;;2.47;;
5787;SDS011;2920;48.158;12.254;2023-04-23T02:11:33;3.45;;;2.60;;
5787;SDS011;2920;48.158;12.254;2023-04-23T02:13:59;3.63;;;2.45;;
5787;SDS011;2920;48.158;12.254;2023-04-23T02:16:25;3.22;;;2.20;;
5787;SDS011;2920;48.158;12.254;2023-04-23T02:18:52;3.45;;;2.42;;
5787;SDS011;2920;48.158;12.254;2023-04-23T02:21:18;4.95;;;3.08;;
5787;SDS011;2920;48.158;12.254;2023-04-23T02:23:43;2.70;;;2.10;;
5787;SDS011;2920;48.158;12.254;2023-04-23T02:26:08;3.40;;;2.30;;
5787;SDS011;2920;48.158;12.254;2023-04-23T02:28:34;4.47;;;2.92;;
5787;SDS011;2920;48.158;12.254;2023-04-23T02:30:59;4.30;;;2.92;;
5787;SDS011;2920;48.158;12.254;2023-04-23T02:33:24;3.30;;;2.53;;
5787;SDS011;2920;48.158;12.254;2023-04-23T02:35:50;4.18;;;2.80;;
5787;SDS011;2920;48.158;12.254;2023-04-23T02:38:15;3.05;;;2.55;;
5787;SDS011;2920;48.158;12.254;2023-04-23T02:40:41;2.83;;;2.30;;
5787;SDS011;2920;48.158;12.254;2023-04-23T02:43:07;7.00;;;3.22;;
5787;SDS011;2920;48.158;12.254;2023-04-23T02:45:32;5.68;;;2.83;;
5787;SDS011;2920;48.158;12.254;2023-04-23T02:47:58;4.88;;;2.90;;
5787;SDS011;2920;48.158;12.254;2023-04-23T02:50:23;5.47;;;2.72;;
5787;SDS011;2920;48.158;12.254;2023-04-23T02:52:48;5.47;;;3.05;;
5787;SDS011;2920;48.158;12.254;2023-04-23T02:55:13;5.55;;;3.38;;
5787;SDS011;2920;48.158;12.254;2023-04-23T02:57:39;4.55;;;2.92;;
5787;SDS011;2920;48.158;12.254;2023-04-23T03:00:05;5.00;;;3.30;;
5787;SDS011;2920;48.158;12.254;2023-04-23T03:02:31;5.72;;;2.92;;
5787;SDS011;2920;48.158;12.254;2023-04-23T03:04:56;5.47;;;3.08;;
5787;SDS011;2920;48.158;12.254;2023-04-23T03:07:22;7.00;;;3.45;;
5787;SDS011;2920;48.158;12.254;2023-04-23T03:09:48;4.78;;;3.40;;
5787;SDS011;2920;48.158;12.254;2023-04-23T03:12:13;6.10;;;3.40;;
5787;SDS011;2920;48.158;12.254;2023-04-23T03:14:38;4.45;;;2.95;;
5787;SDS011;2920;48.158;12.254;2023-04-23T03:17:03;4.68;;;3.00;;
5787;SDS011;2920;48.158;12.254;2023-04-23T03:19:29;3.15;;;2.50;;
5787;SDS011;2920;48.158;12.254;2023-04-23T03:21:54;3.67;;;2.58;;
5787;SDS011;2920;48.158;12.254;2023-04-23T03:24:20;4.10;;;3.00;;
5787;SDS011;2920;48.158;12.254;2023-04-23T03:26:46;3.50;;;2.67;;
5787;SDS011;2920;48.158;12.254;2023-04-23T03:29:11;2.90;;;2.30;;
5787;SDS011;2920;48.158;12.254;2023-04-23T03:31:37;3.22;;;2.13;;
5787;SDS011;2920;48.158;12.254;2023-04-23T03:34:02;2.97;;;2.22;;
5787;SDS011;2920;48.158;12.254;2023-04-23T03:36:28;2.90;;;2.28;;
5787;SDS011;2920;48.158;12.254;2023-04-23T03:38:53;3.63;;;2.70;;
5787;SDS011;2920;48.158;12.254;2023-04-23T03:41:18;4.22;;;2.60;;
5787;SDS011;2920;48.158;12.254;2023-04-23T03:43:44;3.60;;;3.00;;
5787;SDS011;2920;48.158;12.254;2023-04-23T03:46:09;5.00;;;3.38;;
5787;SDS011;2920;48.158;12.254;2023-04-23T03:48:34;5.93;;;3.13;;
5787;SDS011;2920;48.158;12.254;2023-04-23T03:51:00;5.45;;;2.95;;
5787;SDS011;2920;48.158;12.254;2023-04-23T03:53:25;4.38;;;2.90;;
5787;SDS011;2920;48.158;12.254;2023-04-23T03:55:50;3.65;;;2.78;;
5787;SDS011;2920;48.158;12.254;2023-04-23T03:58:16;8.77;;;3.42;;
5787;SDS011;2920;48.158;12.254;2023-04-23T04:00:42;4.85;;;3.45;;
5787;SDS011;2920;48.158;12.254;2023-04-23T04:03:07;4.93;;;3.42;;
5787;SDS011;2920;48.158;12.254;2023-04-23T04:05:33;5.13;;;3.17;;
5787;SDS011;2920;48.158;12.254;2023-04-23T04:07:59;5.82;;;3.50;;
5787;SDS011;2920;48.158;12.254;2023-04-23T04:10:25;6.03;;;3.83;;
5787;SDS011;2920;48.158;12.254;2023-04-23T04:12:50;7.53;;;3.38;;
5787;SDS011;2920;48.158;12.254;2023-04-23T04:15:16;6.55;;;3.47;;
5787;SDS011;2920;48.158;12.254;2023-04-23T04:17:43;5.60;;;3.58;;
5787;SDS011;2920;48.158;12.254;2023-04-23T04:20:09;4.72;;;3.20;;
5787;SDS011;2920;48.158;12.254;2023-04-23T04:22:35;5.97;;;3.15;;
5787;SDS011;2920;48.158;12.254;2023-04-23T04:25:00;6.18;;;3.58;;
5787;SDS011;2920;48.158;12.254;2023-04-23T04:27:26;5.68;;;4.45;;
5787;SDS011;2920;48.158;12.254;2023-04-23T04:29:51;7.57;;;4.78;;
5787;SDS011;2920;48.158;12.254;2023-04-23T04:32:16;6.25;;;4.40;;
5787;SDS011;2920;48.158;12.254;2023-04-23T04:34:42;6.78;;;4.72;;
5787;SDS011;2920;48.158;12.254;2023-04-23T04:37:08;7.35;;;4.32;;
5787;SDS011;2920;48.158;12.254;2023-04-23T04:39:35;5.47;;;4.15;;
5787;SDS011;2920;48.158;12.254;2023-04-23T04:42:01;5.18;;;3.70;;
5787;SDS011;2920;48.158;12.254;2023-04-23T04:44:27;8.32;;;3.97;;
5787;SDS011;2920;48.158;12.254;2023-04-23T04:46:52;6.05;;;3.85;;
5787;SDS011;2920;48.158;12.254;2023-04-23T04:49:18;6.60;;;3.80;;
5787;SDS011;2920;48.158;12.254;2023-04-23T04:51:44;5.40;;;3.80;;
5787;SDS011;2920;48.158;12.254;2023-04-23T04:54:09;5.35;;;3.83;;
5787;SDS011;2920;48.158;12.254;2023-04-23T04:56:34;4.35;;;3.17;;
5787;SDS011;2920;48.158;12.254;2023-04-23T04:59:00;7.65;;;3.80;;
5787;SDS011;2920;48.158;12.254;2023-04-23T05:01:26;4.82;;;3.30;;
5787;SDS011;2920;48.158;12.254;2023-04-23T05:03:52;4.18;;;2.95;;
5787;SDS011;2920;48.158;12.254;2023-04-23T05:06:18;4.88;;;2.85;;
5787;SDS011;2920;48.158;12.254;2023-04-23T05:08:43;4.20;;;2.92;;
5787;SDS011;2920;48.158;12.254;2023-04-23T05:11:12;7.40;;;3.10;;
5787;SDS011;2920;48.158;12.254;2023-04-23T05:13:39;3.75;;;2.40;;
5787;SDS011;2920;48.158;12.254;2023-04-23T05:16:04;6.15;;;3.35;;
5787;SDS011;2920;48.158;12.254;2023-04-23T05:18:30;4.00;;;2.88;;
5787;SDS011;2920;48.158;12.254;2023-04-23T05:20:55;3.38;;;2.78;;
5787;SDS011;2920;48.158;12.254;2023-04-23T05:23:20;3.08;;;2.30;;
5787;SDS011;2920;48.158;12.254;2023-04-23T05:25:46;3.33;;;2.58;;
5787;SDS011;2920;48.158;12.254;2023-04-23T05:28:11;4.07;;;3.13;;
5787;SDS011;2920;48.158;12.254;2023-04-23T05:30:37;6.15;;;3.58;;
5787;SDS011;2920;48.158;12.254;2023-04-23T05:33:02;4.78;;;2.83;;
5787;SDS011;2920;48.158;12.254;2023-04-23T05:35:27;3.60;;;2.58;;
5787;SDS011;2920;48.158;12.254;2023-04-23T05:37:53;5.00;;;2.97;;
5787;SDS011;2920;48.158;12.254;2023-04-23T05:40:18;4.55;;;3.05;;
5787;SDS011;2920;48.158;12.254;2023-04-23T05:42:43;5.40;;;3.60;;
5787;SDS011;2920;48.158;12.254;2023-04-23T05:45:09;5.07;;;3.47;;
5787;SDS011;2920;48.158;12.254;2023-04-23T05:47:34;4.13;;;3.10;;
5787;SDS011;2920;48.158;12.254;2023-04-23T05:50:00;6.50;;;3.42;;
5787;SDS011;2920;48.158;12.254;2023-04-23T05:52:26;6.70;;;3.03;;
5787;SDS011;2920;48.158;12.254;2023-04-23T05:54:54;6.43;;;3.33;;
5787;SDS011;2920;48.158;12.254;2023-04-23T05:57:20;5.47;;;3.28;;
5787;SDS011;2920;48.158;12.254;2023-04-23T05:59:45;6.05;;;3.25;;
5787;SDS011;2920;48.158;12.254;2023-04-23T06:02:10;9.13;;;4.28;;
5787;SDS011;2920;48.158;12.254;2023-04-23T06:04:36;7.30;;;4.10;;
5787;SDS011;2920;48.158;12.254;2023-04-23T06:07:01;15.65;;;4.00;;
5787;SDS011;2920;48.158;12.254;2023-04-23T06:09:27;10.60;;;4.68;;
5787;SDS011;2920;48.158;12.254;2023-04-23T06:11:52;5.28;;;3.85;;
5787;SDS011;2920;48.158;12.254;2023-04-23T06:14:18;5.57;;;3.97;;
5787;SDS011;2920;48.158;12.254;2023-04-23T06:16:44;8.00;;;4.30;;
5787;SDS011;2920;48.158;12.254;2023-04-23T06:19:10;6.63;;;3.75;;
5787;SDS011;2920;48.158;12.254;2023-04-23T06:21:35;6.43;;;3.58;;
5787;SDS011;2920;48.158;12.254;2023-04-23T06:24:01;8.48;;;4.50;;
5787;SDS011;2920;48.158;12.254;2023-04-23T06:26:26;6.60;;;4.07;;
5787;SDS011;2920;48.158;12.254;2023-04-23T06:28:51;5.97;;;3.78;;
5787;SDS011;2920;48.158;12.254;2023-04-23T06:31:16;6.90;;;3.90;;
5787;SDS011;2920;48.158;12.254;2023-04-23T06:33:42;7.25;;;3.55;;
5787;SDS011;2920;48.158;12.254;2023-04-23T06:36:07;9.23;;;4.10;;
5787;SDS011;2920;48.158;12.254;2023-04-23T06:38:34;5.68;;;3.38;;
5787;SDS011;2920;48.158;12.254;2023-04-23T06:41:00;5.80;;;3.50;;
5787;SDS011;2920;48.158;12.254;2023-04-23T06:43:26;4.55;;;3.20;;
5787;SDS011;2920;48.158;12.254;2023-04-23T06:45:51;6.75;;;3.85;;
5787;SDS011;2920;48.158;12.254;2023-04-23T06:48:16;5.03;;;4.00;;
5787;SDS011;2920;48.158;12.254;2023-04-23T06:50:42;5.07;;;3.70;;
5787;SDS011;2920;48.158;12.254;2023-04-23T06:53:08;8.05;;;4.07;;
5787;SDS011;2920;48.158;12.254;2023-04-23T06:55:34;6.70;;;3.83;;
5787;SDS011;2920;48.158;12.254;2023-04-23T06:58:00;6.68;;;3.40;;
5787;SDS011;2920;48.158;12.254;2023-04-23T07:00:25;6.40;;;4.20;;
5787;SDS011;2920;48.158;12.254;2023-04-23T07:02:51;7.68;;;4.03;;
5787;SDS011;2920;48.158;12.254;2023-04-23T07:05:16;4.93;;;3.60;;
5787;SDS011;2920;48.158;12.254;2023-04-23T07:07:42;4.93;;;3.90;;
5787;SDS011;2920;48.158;12.254;2023-04-23T07:10:08;9.73;;;3.85;;
5787;SDS011;2920;48.158;12.254;2023-04-23T07:12:37;4.77;;;3.70;;
5787;SDS011;2920;48.158;12.254;2023-04-23T07:15:03;6.55;;;3.95;;
5787;SDS011;2920;48.158;12.254;2023-04-23T07:17:30;7.00;;;4.10;;
5787;SDS011;2920;48.158;12.254;2023-04-23T07:19:55;6.20;;;3.72;;
5787;SDS011;2920;48.158;12.254;2023-04-23T07:22:21;5.32;;;3.85;;
5787;SDS011;2920;48.158;12.254;2023-04-23T07:24:48;12.18;;;4.65;;
5787;SDS011;2920;48.158;12.254;2023-04-23T07:27:13;6.03;;;4.28;;
5787;SDS011;2920;48.158;12.254;2023-04-23T07:29:38;8.88;;;3.83;;
5787;SDS011;2920;48.158;12.254;2023-04-23T07:32:04;5.10;;;3.67;;
5787;SDS011;2920;48.158;12.254;2023-04-23T07:34:29;7.45;;;4.05;;
5787;SDS011;2920;48.158;12.254;2023-04-23T07:36:54;4.50;;;3.83;;
5787;SDS011;2920;48.158;12.254;2023-04-23T07:39:21;7.68;;;3.90;;
5787;SDS011;2920;48.158;12.254;2023-04-23T07:41:46;5.57;;;4.05;;
5787;SDS011;2920;48.158;12.254;2023-04-23T07:44:11;5.97;;;4.10;;
5787;SDS011;2920;48.158;12.254;2023-04-23T07:46:37;6.43;;;4.50;;
5787;SDS011;2920;48.158;12.254;2023-04-23T07:49:02;5.70;;;3.70;;
5787;SDS011;2920;48.158;12.254;2023-04-23T07:51:28;7.03;;;4.22;;
5787;SDS011;2920;48.158;12.254;2023-04-23T07:53:53;8.45;;;4.60;;
5787;SDS011;2920;48.158;12.254;2023-04-23T07:56:19;6.40;;;3.83;;
5787;SDS011;2920;48.158;12.254;2023-04-23T07:58:46;7.10;;;3.70;;
5787;SDS011;2920;48.158;12.254;2023-04-23T08:01:11;7.25;;;4.57;;
5787;SDS011;2920;48.158;12.254;2023-04-23T08:03:36;6.20;;;4.03;;
5787;SDS011;2920;48.158;12.254;2023-04-23T08:06:02;5.45;;;3.78;;
5787;SDS011;2920;48.158;12.254;2023-04-23T08:08:28;6.82;;;3.90;;
5787;SDS011;2920;48.158;12.254;2023-04-23T08:10:54;9.05;;;4.50;;
5787;SDS011;2920;48.158;12.254;2023-04-23T08:13:19;8.43;;;3.80;;
5787;SDS011;2920;48.158;12.254;2023-04-23T08:15:45;7.22;;;3.78;;
5787;SDS011;2920;48.158;12.254;2023-04-23T08:18:10;6.53;;;4.10;;
5787;SDS011;2920;48.158;12.254;2023-04-23T08:20:35;5.40;;;3.50;;
5787;SDS011;2920;48.158;12.254;2023-04-23T08:23:01;4.93;;;3.72;;
5787;SDS011;2920;48.158;12.254;2023-04-23T08:25:27;3.83;;;3.25;;
5787;SDS011;2920;48.158;12.254;2023-04-23T08:27:53;5.70;;;4.18;;
5787;SDS011;2920;48.158;12.254;2023-04-23T08:30:18;4.68;;;3.65;;
5787;SDS011;2920;48.158;12.254;2023-04-23T08:32:45;5.00;;;3.45;;
5787;SDS011;2920;48.158;12.254;2023-04-23T08:35:13;5.18;;;3.03;;
5787;SDS011;2920;48.158;12.254;2023-04-23T08:37:38;5.95;;;3.45;;
5787;SDS011;2920;48.158;12.254;2023-04-23T08:40:04;4.35;;;2.90;;
5787;SDS011;2920;48.158;12.254;2023-04-23T08:45:11;6.38;;;3.22;;
5787;SDS011;2920;48.158;12.254;2023-04-23T08:47:40;6.18;;;2.50;;
5787;SDS011;2920;48.158;12.254;2023-04-23T08:50:09;4.95;;;2.83;;
5787;SDS011;2920;48.158;12.254;2023-04-23T08:52:37;3.50;;;2.80;;
5787;SDS011;2920;48.158;12.254;2023-04-23T08:55:06;3.95;;;3.03;;
5787;SDS011;2920;48.158;12.254;2023-04-23T09:00:02;3.67;;;2.67;;
5787;SDS011;2920;48.158;12.254;2023-04-23T09:02:30;3.22;;;2.40;;
5787;SDS011;2920;48.158;12.254;2023-04-23T09:04:56;2.95;;;2.25;;
5787;SDS011;2920;48.158;12.254;2023-04-23T09:07:22;3.53;;;2.30;;
5787;SDS011;2920;48.158;12.254;2023-04-23T09:09:47;2.88;;;2.20;;
5787;SDS011;2920;48.158;12.254;2023-04-23T09:12:12;4.05;;;2.53;;
5787;SDS011;2920;48.158;12.254;2023-04-23T09:14:38;5.55;;;2.88;;
5787;SDS011;2920;48.158;12.254;2023-04-23T09:17:03;4.00;;;2.42;;
5787;SDS011;2920;48.158;12.254;2023-04-23T09:19:29;2.50;;;2.10;;
5787;SDS011;2920;48.158;12.254;2023-04-23T09:21:57;2.83;;;2.30;;
5787;SDS011;2920;48.158;12.254;2023-04-23T09:24:23;3.40;;;2.72;;
5787;SDS011;2920;48.158;12.254;2023-04-23T09:26:49;2.40;;;2.08;;
5787;SDS011;2920;48.158;12.254;2023-04-23T09:29:19;3.10;;;2.10;;
5787;SDS011;2920;48.158;12.254;2023-04-23T09:31:48;2.83;;;1.98;;
5787;SDS011;2920;48.158;12.254;2023-04-23T09:34:15;2.08;;;1.50;;
5787;SDS011;2920;48.158;12.254;2023-04-23T09:36:44;2.40;;;1.60;;
5787;SDS011;2920;48.158;12.254;2023-04-23T09:39:11;2.00;;;1.52;;
5787;SDS011;2920;48.158;12.254;2023-04-23T09:41:40;3.80;;;1.67;;
5787;SDS011;2920;48.158;12.254;2023-04-23T09:44:05;2.83;;;1.80;;
5787;SDS011;2920;48.158;12.254;2023-04-23T09:46:36;2.15;;;1.67;;
5787;SDS011;2920;48.158;12.254;2023-04-23T09:49:04;2.42;;;1.45;;
5787;SDS011;2920;48.158;12.254;2023-04-23T09:51:34;2.30;;;1.60;;
5787;SDS011;2920;48.158;12.254;2023-04-23T09:54:13;2.53;;;1.70;;
5787;SDS011;2920;48.158;12.254;2023-04-23T09:56:40;3.20;;;1.77;;
5787;SDS011;2920;48.158;12.254;2023-04-23T09:59:19;2.35;;;1.77;;
5787;SDS011;2920;48.158;12.254;2023-04-23T10:01:45;2.87;;;1.70;;
5787;SDS011;2920;48.158;12.254;2023-04-23T10:04:11;2.22;;;1.65;;
5787;SDS011;2920;48.158;12.254;2023-04-23T10:06:36;3.15;;;1.63;;
5787;SDS011;2920;48.158;12.254;2023-04-23T10:09:02;1.70;;;1.50;;
5787;SDS011;2920;48.158;12.254;2023-04-23T10:11:27;2.00;;;1.50;;
5787;SDS011;2920;48.158;12.254;2023-04-23T10:13:53;2.90;;;2.38;;
5787;SDS011;2920;48.158;12.254;2023-04-23T10:16:19;3.38;;;1.42;;
5787;SDS011;2920;48.158;12.254;2023-04-23T10:18:45;1.27;;;1.17;;
5787;SDS011;2920;48.158;12.254;2023-04-23T10:21:11;2.08;;;1.52;;
5787;SDS011;2920;48.158;12.254;2023-04-23T10:23:39;1.92;;;1.50;;
5787;SDS011;2920;48.158;12.254;2023-04-23T10:26:06;1.65;;;1.50;;
5787;SDS011;2920;48.158;12.254;2023-04-23T10:28:33;2.58;;;1.50;;
5787;SDS011;2920;48.158;12.254;2023-04-23T10:30:59;3.47;;;1.70;;
5787;SDS011;2920;48.158;12.254;2023-04-23T10:33:25;1.40;;;1.27;;
5787;SDS011;2920;48.158;12.254;2023-04-23T10:35:50;3.03;;;1.77;;
5787;SDS011;2920;48.158;12.254;2023-04-23T10:38:16;1.88;;;1.70;;
5787;SDS011;2920;48.158;12.254;2023-04-23T10:40:42;4.32;;;1.73;;
5787;SDS011;2920;48.158;12.254;2023-04-23T10:43:09;2.65;;;1.60;;
5787;SDS011;2920;48.158;12.254;2023-04-23T10:45:34;2.10;;;1.67;;
5787;SDS011;2920;48.158;12.254;2023-04-23T10:48:00;2.63;;;1.90;;
5787;SDS011;2920;48.158;12.254;2023-04-23T10:50:29;1.42;;;1.30;;
5787;SDS011;2920;48.158;12.254;2023-04-23T10:52:57;1.50;;;1.40;;
5787;SDS011;2920;48.158;12.254;2023-04-23T10:55:24;1.58;;;1.48;;
5787;SDS011;2920;48.158;12.254;2023-04-23T11:00:25;1.70;;;1.50;;
5787;SDS011;2920;48.158;12.254;2023-04-23T11:02:51;2.55;;;1.90;;
5787;SDS011;2920;48.158;12.254;2023-04-23T11:05:17;2.25;;;1.65;;
5787;SDS011;2920;48.158;12.254;2023-04-23T11:07:44;2.70;;;1.65;;
5787;SDS011;2920;48.158;12.254;2023-04-23T11:10:26;2.40;;;1.60;;
5787;SDS011;2920;48.158;12.254;2023-04-23T11:12:54;1.90;;;1.52;;
5787;SDS011;2920;48.158;12.254;2023-04-23T11:15:19;1.98;;;1.67;;
5787;SDS011;2920;48.158;12.254;2023-04-23T11:22:42;3.35;;;1.90;;
5787;SDS011;2920;48.158;12.254;2023-04-23T11:25:09;1.52;;;1.42;;
5787;SDS011;2920;48.158;12.254;2023-04-23T11:27:39;3.25;;;1.75;;
5787;SDS011;2920;48.158;12.254;2023-04-23T11:30:13;2.70;;;2.00;;
5787;SDS011;2920;48.158;12.254;2023-04-23T11:32:40;2.85;;;1.58;;
5787;SDS011;2920;48.158;12.254;2023-04-23T11:35:06;4.05;;;1.73;;
5787;SDS011;2920;48.158;12.254;2023-04-23T11:37:37;4.07;;;2.03;;
5787;SDS011;2920;48.158;12.254;2023-04-23T11:40:06;2.65;;;1.88;;
5787;SDS011;2920;48.158;12.254;2023-04-23T11:42:39;1.73;;;1.60;;
5787;SDS011;2920;48.158;12.254;2023-04-23T11:45:20;4.22;;;1.70;;
5787;SDS011;2920;48.158;12.254;2023-04-23T11:47:51;2.20;;;1.90;;
5787;SDS011;2920;48.158;12.254;2023-04-23T11:50:20;4.15;;;1.98;;
5787;SDS011;2920;48.158;12.254;2023-04-23T11:52:56;2.63;;;2.00;;
5787;SDS011;2920;48.158;12.254;2023-04-23T11:55:22;2.85;;;1.92;;
5787;SDS011;2920;48.158;12.254;2023-04-23T11:57:48;2.40;;;2.00;;
5787;SDS011;2920;48.158;12.254;2023-04-23T12:00:19;2.35;;;2.08;;
5787;SDS011;2920;48.158;12.254;2023-04-23T12:03:04;1.83;;;1.63;;
5787;SDS011;2920;48.158;12.254;2023-04-23T12:05:30;6.38;;;2.15;;
5787;SDS011;2920;48.158;12.254;2023-04-23T12:08:13;2.58;;;2.13;;
5787;SDS011;2920;48.158;12.254;2023-04-23T12:10:44;2.35;;;1.80;;
5787;SDS011;2920;48.158;12.254;2023-04-23T12:13:13;3.05;;;2.35;;
5787;SDS011;2920;48.158;12.254;2023-04-23T12:15:43;3.10;;;1.90;;
5787;SDS011;2920;48.158;12.254;2023-04-23T12:18:12;3.33;;;2.17;;
5787;SDS011;2920;48.158;12.254;2023-04-23T12:20:38;3.00;;;2.50;;
5787;SDS011;2920;48.158;12.254;2023-04-23T12:23:04;3.88;;;2.65;;
5787;SDS011;2920;48.158;12.254;2023-04-23T12:25:31;3.55;;;2.30;;
5787;SDS011;2920;48.158;12.254;2023-04-23T12:28:00;4.10;;;2.42;;
5787;SDS011;2920;48.158;12.254;2023-04-23T12:30:28;4.00;;;2.58;;
5787;SDS011;2920;48.158;12.254;2023-04-23T12:33:00;2.78;;;2.30;;
5787;SDS011;2920;48.158;12.254;2023-04-23T12:35:39;3.17;;;2.65;;
5787;SDS011;2920;48.158;12.254;2023-04-23T12:40:31;3.67;;;2.20;;
5787;SDS011;2920;48.158;12.254;2023-04-23T12:42:57;3.40;;;2.20;;
5787;SDS011;2920;48.158;12.254;2023-04-23T12:45:22;3.47;;;2.30;;
5787;SDS011;2920;48.158;12.254;2023-04-23T12:47:47;2.58;;;2.28;;
5787;SDS011;2920;48.158;12.254;2023-04-23T12:50:12;2.50;;;2.30;;
5787;SDS011;2920;48.158;12.254;2023-04-23T12:52:38;4.88;;;2.67;;
5787;SDS011;2920;48.158;12.254;2023-04-23T12:55:03;3.28;;;2.40;;
5787;SDS011;2920;48.158;12.254;2023-04-23T12:57:30;7.28;;;2.88;;
5787;SDS011;2920;48.158;12.254;2023-04-23T12:59:55;6.35;;;2.63;;
5787;SDS011;2920;48.158;12.254;2023-04-23T13:02:21;3.65;;;2.90;;
5787;SDS011;2920;48.158;12.254;2023-04-23T13:04:47;3.80;;;2.35;;
5787;SDS011;2920;48.158;12.254;2023-04-23T13:07:12;4.47;;;2.95;;
5787;SDS011;2920;48.158;12.254;2023-04-23T13:09:38;3.35;;;2.40;;
5787;SDS011;2920;48.158;12.254;2023-04-23T13:12:03;4.57;;;2.72;;
5787;SDS011;2920;48.158;12.254;2023-04-23T13:14:28;3.05;;;2.60;;
5787;SDS011;2920;48.158;12.254;2023-04-23T13:16:56;4.65;;;2.65;;
5787;SDS011;2920;48.158;12.254;2023-04-23T13:19:21;2.88;;;2.35;;
5787;SDS011;2920;48.158;12.254;2023-04-23T13:21:47;3.50;;;3.05;;
5787;SDS011;2920;48.158;12.254;2023-04-23T13:24:12;3.95;;;3.00;;
5787;SDS011;2920;48.158;12.254;2023-04-23T13:26:38;3.08;;;2.67;;
5787;SDS011;2920;48.158;12.254;2023-04-23T13:29:03;4.90;;;3.53;;
5787;SDS011;2920;48.158;12.254;2023-04-23T13:31:28;3.75;;;3.33;;
5787;SDS011;2920;48.158;12.254;2023-04-23T13:33:54;2.97;;;2.50;;
5787;SDS011;2920;48.158;12.254;2023-04-23T13:36:20;4.05;;;2.95;;
5787;SDS011;2920;48.158;12.254;2023-04-23T13:38:45;4.38;;;3.60;;
5787;SDS011;2920;48.158;12.254;2023-04-23T13:41:11;5.80;;;3.42;;
5787;SDS011;2920;48.158;12.254;2023-04-23T13:43:36;5.30;;;3.50;;
5787;SDS011;2920;48.158;12.254;2023-04-23T13:46:01;4.43;;;2.70;;
5787;SDS011;2920;48.158;12.254;2023-04-23T13:48:27;5.47;;;3.47;;
5787;SDS011;2920;48.158;12.254;2023-04-23T13:50:55;3.92;;;2.53;;
5787;SDS011;2920;48.158;12.254;2023-04-23T13:55:49;5.70;;;3.30;;
5787;SDS011;2920;48.158;12.254;2023-04-23T13:58:15;4.72;;;3.50;;
5787;SDS011;2920;48.158;12.254;2023-04-23T14:00:40;6.93;;;3.50;;
5787;SDS011;2920;48.158;12.254;2023-04-23T14:03:06;4.68;;;3.60;;
5787;SDS011;2920;48.158;12.254;2023-04-23T14:05:32;3.35;;;3.05;;
5787;SDS011;2920;48.158;12.254;2023-04-23T14:07:58;5.07;;;3.28;;
5787;SDS011;2920;48.158;12.254;2023-04-23T14:10:23;4.45;;;3.22;;
5787;SDS011;2920;48.158;12.254;2023-04-23T14:12:49;5.13;;;3.30;;
5787;SDS011;2920;48.158;12.254;2023-04-23T14:15:15;4.88;;;3.22;;
5787;SDS011;2920;48.158;12.254;2023-04-23T14:17:41;2.95;;;2.65;;
5787;SDS011;2920;48.158;12.254;2023-04-23T14:20:08;3.97;;;2.90;;
5787;SDS011;2920;48.158;12.254;2023-04-23T14:22:34;4.90;;;3.60;;
5787;SDS011;2920;48.158;12.254;2023-04-23T14:25:01;5.43;;;3.20;;
5787;SDS011;2920;48.158;12.254;2023-04-23T14:27:30;4.90;;;3.47;;
5787;SDS011;2920;48.158;12.254;2023-04-23T14:29:57;6.80;;;3.88;;
5787;SDS011;2920;48.158;12.254;2023-04-23T14:32:28;5.20;;;3.63;;
5787;SDS011;2920;48.158;12.254;2023-04-23T14:34:54;4.03;;;3.20;;
5787;SDS011;2920;48.158;12.254;2023-04-23T14:37:19;4.35;;;3.22;;
5787;SDS011;2920;48.158;12.254;2023-04-23T14:39:45;4.78;;;2.83;;
5787;SDS011;2920;48.158;12.254;2023-04-23T14:42:10;5.45;;;3.17;;
5787;SDS011;2920;48.158;12.254;2023-04-23T14:44:36;5.63;;;3.45;;
5787;SDS011;2920;48.158;12.254;2023-04-23T14:47:01;3.58;;;2.72;;
5787;SDS011;2920;48.158;12.254;2023-04-23T14:49:26;3.30;;;2.78;;
5787;SDS011;2920;48.158;12.254;2023-04-23T14:51:52;5.53;;;3.65;;
5787;SDS011;2920;48.158;12.254;2023-04-23T14:54:21;4.28;;;3.60;;
5787;SDS011;2920;48.158;12.254;2023-04-23T14:56:47;4.75;;;3.42;;
5787;SDS011;2920;48.158;12.254;2023-04-23T14:59:12;4.00;;;3.40;;
5787;SDS011;2920;48.158;12.254;2023-04-23T15:01:37;3.78;;;3.30;;
5787;SDS011;2920;48.158;12.254;2023-04-23T15:04:03;3.75;;;3.15;;
5787;SDS011;2920;48.158;12.254;2023-04-23T15:06:29;3.75;;;2.88;;
5787;SDS011;2920;48.158;12.254;2023-04-23T15:08:54;4.75;;;4.03;;
5787;SDS011;2920;48.158;12.254;2023-04-23T15:11:19;4.15;;;3.38;;